sensor_id;sensor_type;location;lat;lon;timestamp;P1;durP1;ratioP1;P2;durP2;ratioP2
71902;SDS011;59778;50.310;18.780;2023-04-10T00:00:28;78.37;;;28.17;;
71902;SDS011;59778;50.310;18.780;2023-04-10T00:15:55;76.73;;;29.97;;
71902;SDS011;59778;50.310;18.780;2023-04-10T00:31:18;70.00;;;28.17;;
71902;SDS011;59778;50.310;18.780;2023-04-10T00:46:39;73.80;;;31.13;;
71902;SDS011;59778;50.310;18.780;2023-04-10T01:02:01;69.40;;;26.83;;
71902;SDS011;59778;50.310;18.780;2023-04-10T01:32:51;73.00;;;29.73;;
71902;SDS011;59778;50.310;18.780;2023-04-10T01:48:18;74.43;;;29.60;;
71902;SDS011;59778;50.310;18.780;2023-04-10T02:03:40;87.73;;;32.87;;
71902;SDS011;59778;50.310;18.780;2023-04-10T02:19:01;95.67;;;33.13;;
71902;SDS011;59778;50.310;18.780;2023-04-10T02:34:25;95.57;;;32.57;;
71902;SDS011;59778;50.310;18.780;2023-04-10T02:49:47;102.47;;;33.47;;
71902;SDS011;59778;50.310;18.780;2023-04-10T03:05:08;108.57;;;33.27;;
71902;SDS011;59778;50.310;18.780;2023-04-10T03:20:30;114.03;;;33.10;;
71902;SDS011;59778;50.310;18.780;2023-04-10T03:35:52;111.93;;;33.10;;
71902;SDS011;59778;50.310;18.780;2023-04-10T03:51:14;92.87;;;30.27;;
71902;SDS011;59778;50.310;18.780;2023-04-10T04:06:35;100.47;;;29.80;;
71902;SDS011;59778;50.310;18.780;2023-04-10T04:21:57;112.27;;;32.10;;
71902;SDS011;59778;50.310;18.780;2023-04-10T04:37:20;124.83;;;34.47;;
71902;SDS011;59778;50.310;18.780;2023-04-10T04:52:42;127.90;;;34.30;;
71902;SDS011;59778;50.310;18.780;2023-04-10T05:08:04;114.67;;;31.07;;
71902;SDS011;59778;50.310;18.780;2023-04-10T05:23:25;114.53;;;30.27;;
71902;SDS011;59778;50.310;18.780;2023-04-10T05:38:48;116.27;;;30.27;;
71902;SDS011;59778;50.310;18.780;2023-04-10T05:54:09;108.87;;;29.60;;
71902;SDS011;59778;50.310;18.780;2023-04-10T06:09:30;92.90;;;26.63;;
71902;SDS011;59778;50.310;18.780;2023-04-10T06:24:52;100.67;;;28.57;;
71902;SDS011;59778;50.310;18.780;2023-04-10T06:40:13;95.97;;;27.97;;
71902;SDS011;59778;50.310;18.780;2023-04-10T06:55:35;94.83;;;28.07;;
71902;SDS011;59778;50.310;18.780;2023-04-10T07:10:57;84.53;;;25.27;;
71902;SDS011;59778;50.310;18.780;2023-04-10T07:26:18;89.60;;;26.47;;
71902;SDS011;59778;50.310;18.780;2023-04-10T07:41:40;83.57;;;27.07;;
71902;SDS011;59778;50.310;18.780;2023-04-10T07:57:01;78.03;;;27.70;;
71902;SDS011;59778;50.310;18.780;2023-04-10T08:12:26;87.23;;;29.93;;
71902;SDS011;59778;50.310;18.780;2023-04-10T08:27:47;75.50;;;28.13;;
71902;SDS011;59778;50.310;18.780;2023-04-10T08:43:09;94.13;;;30.93;;
71902;SDS011;59778;50.310;18.780;2023-04-10T08:58:30;80.53;;;29.90;;
71902;SDS011;59778;50.310;18.780;2023-04-10T09:13:52;79.57;;;30.30;;
71902;SDS011;59778;50.310;18.780;2023-04-10T09:29:13;70.47;;;27.97;;
71902;SDS011;59778;50.310;18.780;2023-04-10T09:44:37;83.63;;;30.20;;
71902;SDS011;59778;50.310;18.780;2023-04-10T10:00:01;78.53;;;27.97;;
71902;SDS011;59778;50.310;18.780;2023-04-10T10:31:34;65.93;;;27.17;;
71902;SDS011;59778;50.310;18.780;2023-04-10T10:47:00;68.30;;;28.07;;
71902;SDS011;59778;50.310;18.780;2023-04-10T11:02:27;58.47;;;25.53;;
71902;SDS011;59778;50.310;18.780;2023-04-10T11:17:49;58.87;;;25.17;;
71902;SDS011;59778;50.310;18.780;2023-04-10T11:33:12;56.70;;;27.13;;
71902;SDS011;59778;50.310;18.780;2023-04-10T11:48:37;47.90;;;22.37;;
71902;SDS011;59778;50.310;18.780;2023-04-10T12:03:59;58.40;;;29.20;;
71902;SDS011;59778;50.310;18.780;2023-04-10T12:19:24;58.37;;;28.70;;
71902;SDS011;59778;50.310;18.780;2023-04-10T12:34:49;48.53;;;24.73;;
71902;SDS011;59778;50.310;18.780;2023-04-10T12:50:17;38.60;;;21.47;;
71902;SDS011;59778;50.310;18.780;2023-04-10T13:05:40;46.73;;;24.27;;
71902;SDS011;59778;50.310;18.780;2023-04-10T13:21:02;44.47;;;23.63;;
71902;SDS011;59778;50.310;18.780;2023-04-10T13:36:23;45.13;;;25.00;;
71902;SDS011;59778;50.310;18.780;2023-04-10T13:51:44;47.07;;;29.17;;
71902;SDS011;59778;50.310;18.780;2023-04-10T14:07:07;35.67;;;22.03;;
71902;SDS011;59778;50.310;18.780;2023-04-10T14:22:29;41.30;;;23.77;;
71902;SDS011;59778;50.310;18.780;2023-04-10T14:37:51;34.73;;;20.43;;
71902;SDS011;59778;50.310;18.780;2023-04-10T14:53:12;33.30;;;20.47;;
71902;SDS011;59778;50.310;18.780;2023-04-10T15:08:34;35.07;;;21.63;;
71902;SDS011;59778;50.310;18.780;2023-04-10T15:23:55;30.33;;;19.13;;
71902;SDS011;59778;50.310;18.780;2023-04-10T15:39:16;27.73;;;15.80;;
71902;SDS011;59778;50.310;18.780;2023-04-10T15:54:38;26.07;;;15.77;;
71902;SDS011;59778;50.310;18.780;2023-04-10T16:09:59;49.67;;;20.47;;
71902;SDS011;59778;50.310;18.780;2023-04-10T16:25:21;28.77;;;16.47;;
71902;SDS011;59778;50.310;18.780;2023-04-10T16:40:42;26.00;;;16.07;;
71902;SDS011;59778;50.310;18.780;2023-04-10T16:56:04;23.37;;;13.57;;
71902;SDS011;59778;50.310;18.780;2023-04-10T17:11:25;97.27;;;19.07;;
71902;SDS011;59778;50.310;18.780;2023-04-10T17:26:48;8.63;;;3.70;;
71902;SDS011;59778;50.310;18.780;2023-04-10T17:42:10;13.63;;;5.37;;
71902;SDS011;59778;50.310;18.780;2023-04-10T17:57:32;22.33;;;8.70;;
71902;SDS011;59778;50.310;18.780;2023-04-10T18:12:56;34.63;;;12.87;;
71902;SDS011;59778;50.310;18.780;2023-04-10T18:28:19;38.47;;;19.37;;
71902;SDS011;59778;50.310;18.780;2023-04-10T18:43:41;39.73;;;15.93;;
71902;SDS011;59778;50.310;18.780;2023-04-10T18:59:05;41.87;;;16.73;;
71902;SDS011;59778;50.310;18.780;2023-04-10T19:14:26;61.47;;;22.53;;
71902;SDS011;59778;50.310;18.780;2023-04-10T19:29:51;59.70;;;25.43;;
71902;SDS011;59778;50.310;18.780;2023-04-10T19:45:19;98.23;;;39.50;;
71902;SDS011;59778;50.310;18.780;2023-04-10T20:00:42;127.70;;;55.00;;
71902;SDS011;59778;50.310;18.780;2023-04-10T20:16:03;103.87;;;46.73;;
71902;SDS011;59778;50.310;18.780;2023-04-10T20:31:31;163.93;;;74.40;;
71902;SDS011;59778;50.310;18.780;2023-04-10T20:46:53;116.77;;;51.77;;
71902;SDS011;59778;50.310;18.780;2023-04-10T21:02:14;107.93;;;49.53;;
71902;SDS011;59778;50.310;18.780;2023-04-10T21:17:37;115.93;;;48.83;;
71902;SDS011;59778;50.310;18.780;2023-04-10T21:32:59;124.00;;;53.43;;
71902;SDS011;59778;50.310;18.780;2023-04-10T21:48:20;132.17;;;56.63;;
71902;SDS011;59778;50.310;18.780;2023-04-10T22:03:41;120.73;;;52.30;;
71902;SDS011;59778;50.310;18.780;2023-04-10T22:19:03;110.27;;;48.03;;
71902;SDS011;59778;50.310;18.780;2023-04-10T22:34:24;101.97;;;47.00;;
71902;SDS011;59778;50.310;18.780;2023-04-10T22:49:45;133.13;;;51.83;;
71902;SDS011;59778;50.310;18.780;2023-04-10T23:05:07;130.50;;;50.60;;
71902;SDS011;59778;50.310;18.780;2023-04-10T23:20:29;140.57;;;50.53;;
71902;SDS011;59778;50.310;18.780;2023-04-10T23:35:50;153.07;;;54.60;;
71902;SDS011;59778;50.310;18.780;2023-04-10T23:51:11;131.43;;;47.60;;
